Time;durP1;ratioP1;P1;durP2;ratioP2;P2;SDS_P1;SDS_P2;PMS_P1;PMS_P2;Temp;Humidity;BMP_temperature;BMP_pressure;BME280_temperature;BME280_humidity;BME280_pressure;Samples;Min_cycle;Max_cycle;Signal;HPM_P1;HPM_P2
2021/10/27 00:01:10;;;;;;;10.40;5.88;;;14.50;96.70;;;;;;4945592;28;20051;-73
2021/10/27 00:03:38;;;;;;;10.73;6.10;;;14.50;96.70;;;;;;4943427;28;20424;-74
2021/10/27 00:06:06;;;;;;;11.15;6.03;;;14.50;96.70;;;;;;4946259;28;20559;-73
2021/10/27 00:08:34;;;;;;;11.57;6.28;;;14.50;96.70;;;;;;4943720;28;20047;-73
2021/10/27 00:11:02;;;;;;;10.85;6.05;;;14.60;96.70;;;;;;4939583;28;20496;-73
2021/10/27 00:13:30;;;;;;;17.23;5.57;;;14.60;96.70;;;;;;4943802;28;20039;-74
2021/10/27 00:15:59;;;;;;;9.88;5.82;;;14.50;96.70;;;;;;4946635;28;20409;-73
2021/10/27 00:18:29;;;;;;;11.07;5.55;;;14.50;96.70;;;;;;4940806;28;20572;-73
2021/10/27 00:20:57;;;;;;;10.48;5.38;;;14.50;96.70;;;;;;4940884;28;20308;-73
2021/10/27 00:23:25;;;;;;;10.60;5.70;;;14.40;96.70;;;;;;4943032;28;20136;-73
2021/10/27 00:25:53;;;;;;;9.68;5.38;;;14.50;96.70;;;;;;4940834;28;20046;-73
2021/10/27 00:28:21;;;;;;;9.80;5.30;;;14.60;96.70;;;;;;4943297;28;20039;-73
2021/10/27 00:30:50;;;;;;;8.80;5.47;;;14.50;96.70;;;;;;4942682;28;20043;-73
2021/10/27 00:33:18;;;;;;;11.13;5.50;;;14.50;96.70;;;;;;4940886;28;20083;-73
2021/10/27 00:35:48;;;;;;;9.85;4.88;;;14.50;96.70;;;;;;4942149;28;20054;-73
2021/10/27 00:38:16;;;;;;;10.88;5.18;;;14.50;96.70;;;;;;4938527;28;20899;-74
2021/10/27 00:40:45;;;;;;;9.60;4.97;;;14.50;96.70;;;;;;4943944;28;20050;-74
2021/10/27 00:43:14;;;;;;;9.98;5.70;;;14.50;96.70;;;;;;4942518;28;20039;-74
2021/10/27 00:45:42;;;;;;;8.23;4.75;;;14.50;96.70;;;;;;4941874;28;20509;-75
2021/10/27 00:48:10;;;;;;;9.68;4.72;;;14.50;96.70;;;;;;4942717;28;20134;-74
2021/10/27 00:50:38;;;;;;;8.98;4.85;;;14.50;96.70;;;;;;4944784;28;20575;-74
2021/10/27 00:53:08;;;;;;;7.55;4.15;;;14.30;96.70;;;;;;4943520;28;20058;-74
2021/10/27 00:55:36;;;;;;;10.52;4.80;;;14.30;96.70;;;;;;4939426;29;20075;-74
2021/10/27 00:58:05;;;;;;;7.30;4.38;;;14.40;96.70;;;;;;4945535;28;20050;-74
2021/10/27 01:00:35;;;;;;;6.80;4.18;;;14.50;96.70;;;;;;4940770;28;20360;-75
2021/10/27 01:03:04;;;;;;;8.00;4.38;;;14.50;96.70;;;;;;4916918;29;20043;-74
2021/10/27 01:05:32;;;;;;;5.70;3.67;;;14.60;96.70;;;;;;4941881;28;20048;-73
2021/10/27 01:08:01;;;;;;;7.28;4.30;;;14.60;96.70;;;;;;4942983;28;20058;-74
2021/10/27 01:10:31;;;;;;;8.23;4.75;;;14.60;96.70;;;;;;4940849;28;20086;-74
2021/10/27 01:13:00;;;;;;;6.95;4.13;;;14.70;96.70;;;;;;4924761;29;20052;-74
2021/10/27 01:15:28;;;;;;;9.00;4.30;;;14.70;96.70;;;;;;4938628;28;20055;-74
2021/10/27 01:17:57;;;;;;;7.07;4.15;;;14.60;96.70;;;;;;4944995;28;20398;-74
2021/10/27 01:20:27;;;;;;;10.77;5.00;;;14.70;96.70;;;;;;4937732;29;20600;-75
2021/10/27 01:22:55;;;;;;;9.23;4.60;;;14.70;96.70;;;;;;4940683;28;20056;-74
2021/10/27 01:25:23;;;;;;;11.27;4.85;;;14.60;96.70;;;;;;4942453;28;20730;-75
2021/10/27 01:27:53;;;;;;;7.95;4.88;;;14.60;96.70;;;;;;4914880;29;20428;-74
2021/10/27 01:30:24;;;;;;;8.70;4.47;;;14.60;96.70;;;;;;4943783;28;20066;-75
2021/10/27 01:32:53;;;;;;;7.00;4.45;;;14.60;96.70;;;;;;4941035;28;20051;-75
2021/10/27 01:35:21;;;;;;;9.98;4.45;;;14.60;96.70;;;;;;4944438;28;20476;-74
2021/10/27 01:37:51;;;;;;;8.40;4.90;;;14.60;96.70;;;;;;4936025;29;20056;-74
2021/10/27 01:40:19;;;;;;;6.40;4.13;;;14.60;96.70;;;;;;4943000;28;20043;-74
2021/10/27 01:42:52;;;;;;;9.73;4.53;;;14.50;96.70;;;;;;4936937;28;20415;-74
2021/10/27 01:45:20;;;;;;;8.15;4.68;;;14.60;96.70;;;;;;4951000;28;20035;-74
2021/10/27 01:47:48;;;;;;;7.32;4.60;;;14.60;96.70;;;;;;4945000;28;20035;-74
2021/10/27 01:50:17;;;;;;;8.38;4.75;;;14.60;96.70;;;;;;4942262;28;20048;-74
2021/10/27 01:52:45;;;;;;;7.05;4.20;;;14.50;96.70;;;;;;4944665;28;20055;-73
2021/10/27 01:55:14;;;;;;;7.28;4.47;;;14.40;96.70;;;;;;4945491;28;20043;-74
2021/10/27 01:57:44;;;;;;;9.60;4.63;;;14.40;96.70;;;;;;4944363;28;20091;-74
2021/10/27 02:00:13;;;;;;;7.10;4.15;;;14.40;96.70;;;;;;4944914;28;20615;-74
2021/10/27 02:02:41;;;;;;;6.80;4.05;;;14.50;96.70;;;;;;4933742;29;20456;-73
2021/10/27 02:05:10;;;;;;;8.18;4.25;;;14.60;96.70;;;;;;4939801;28;20515;-75
2021/10/27 02:07:38;;;;;;;7.00;4.55;;;14.60;96.70;;;;;;4946655;28;20057;-74
2021/10/27 02:10:09;;;;;;;7.75;4.53;;;14.60;96.70;;;;;;4944112;28;20437;-74
2021/10/27 02:12:40;;;;;;;10.00;4.80;;;14.60;96.70;;;;;;4944701;28;20059;-74
2021/10/27 02:15:10;;;;;;;6.00;4.60;;;14.60;96.70;;;;;;4932475;29;20122;-74
2021/10/27 02:17:38;;;;;;;6.88;4.20;;;14.60;96.70;;;;;;4941786;29;20047;-74
2021/10/27 02:20:08;;;;;;;6.32;4.03;;;14.60;96.70;;;;;;4946776;28;20074;-74
2021/10/27 02:22:36;;;;;;;7.40;4.47;;;14.60;96.70;;;;;;4933150;28;20629;-74
2021/10/27 02:25:05;;;;;;;7.90;4.38;;;14.70;96.70;;;;;;4949588;28;20043;-74
2021/10/27 02:27:34;;;;;;;6.97;4.15;;;14.60;96.70;;;;;;4943603;28;20043;-75
2021/10/27 02:30:04;;;;;;;7.80;4.15;;;14.60;96.70;;;;;;4948753;28;20412;-74
2021/10/27 02:32:32;;;;;;;8.13;4.43;;;14.60;96.70;;;;;;4945618;28;20039;-75
2021/10/27 02:35:01;;;;;;;6.80;4.60;;;14.60;96.70;;;;;;4943703;28;20050;-74
2021/10/27 02:37:30;;;;;;;6.75;4.00;;;14.60;96.70;;;;;;4944627;28;20093;-74
2021/10/27 02:39:58;;;;;;;5.68;3.83;;;14.60;96.70;;;;;;4946989;28;20474;-75
2021/10/27 02:42:26;;;;;;;5.80;4.47;;;14.70;96.70;;;;;;4931303;28;20094;-74
2021/10/27 02:44:54;;;;;;;6.68;4.70;;;14.70;96.70;;;;;;4940685;28;20062;-74
2021/10/27 02:47:24;;;;;;;6.72;4.38;;;14.70;96.70;;;;;;4944072;28;20509;-74
2021/10/27 02:49:52;;;;;;;6.60;4.18;;;14.70;96.70;;;;;;4945122;28;20039;-74
2021/10/27 02:52:20;;;;;;;7.78;4.85;;;14.70;96.70;;;;;;4948379;28;20457;-74
2021/10/27 02:54:48;;;;;;;7.47;4.50;;;14.60;96.70;;;;;;4944594;28;20559;-74
2021/10/27 02:57:16;;;;;;;5.88;4.18;;;14.60;96.70;;;;;;4936486;28;20170;-74
2021/10/27 02:59:44;;;;;;;7.82;4.30;;;14.60;96.70;;;;;;4924809;29;20052;-74
2021/10/27 03:02:12;;;;;;;7.63;4.53;;;14.60;96.70;;;;;;4943150;28;20039;-74
2021/10/27 03:04:42;;;;;;;6.45;3.88;;;14.60;96.70;;;;;;4945510;28;20066;-74
2021/10/27 03:07:11;;;;;;;6.95;4.13;;;14.60;96.70;;;;;;4950652;28;20149;-74
2021/10/27 03:09:39;;;;;;;7.45;4.13;;;14.60;96.70;;;;;;4943479;28;20129;-74
2021/10/27 03:12:08;;;;;;;7.65;4.50;;;14.60;96.70;;;;;;4939848;28;20051;-74
2021/10/27 03:14:36;;;;;;;8.13;4.63;;;14.50;96.70;;;;;;4946901;28;20054;-74
2021/10/27 03:17:04;;;;;;;8.57;4.38;;;14.60;96.70;;;;;;4920149;29;20062;-74
2021/10/27 03:19:32;;;;;;;7.03;4.47;;;14.60;96.70;;;;;;4943680;28;20066;-74
2021/10/27 03:22:02;;;;;;;7.85;4.32;;;14.60;96.70;;;;;;4941277;28;20055;-74
2021/10/27 03:24:30;;;;;;;6.10;3.50;;;14.70;96.70;;;;;;4941019;28;20075;-74
2021/10/27 03:26:59;;;;;;;6.95;4.30;;;14.70;96.70;;;;;;4937153;28;20047;-74
2021/10/27 03:29:27;;;;;;;7.05;3.40;;;14.70;96.70;;;;;;4943427;29;20054;-74
2021/10/27 03:31:55;;;;;;;5.43;3.83;;;14.70;96.70;;;;;;4943502;28;20703;-74
2021/10/27 03:34:23;;;;;;;7.78;4.55;;;14.70;96.70;;;;;;4943007;28;20505;-74
2021/10/27 03:36:52;;;;;;;6.25;4.15;;;14.70;96.70;;;;;;4930619;28;20058;-74
2021/10/27 03:39:22;;;;;;;7.53;4.25;;;14.80;96.70;;;;;;4939678;29;20055;-74
2021/10/27 03:41:50;;;;;;;8.07;3.95;;;14.80;96.70;;;;;;4919641;29;20048;-74
2021/10/27 03:44:18;;;;;;;8.88;4.05;;;14.70;96.70;;;;;;4942109;28;20466;-74
2021/10/27 03:46:47;;;;;;;8.05;4.18;;;14.70;96.70;;;;;;4946485;28;20547;-74
2021/10/27 03:49:15;;;;;;;6.47;4.13;;;14.60;96.70;;;;;;4940937;28;20098;-75
2021/10/27 03:51:43;;;;;;;6.90;3.83;;;14.50;96.70;;;;;;4942065;28;20046;-75
2021/10/27 03:54:11;;;;;;;6.20;3.55;;;14.60;96.70;;;;;;4944216;28;20039;-74
2021/10/27 03:56:41;;;;;;;5.60;4.00;;;14.50;96.70;;;;;;4944771;28;20043;-74
2021/10/27 03:59:09;;;;;;;6.70;3.80;;;14.60;96.70;;;;;;4937999;28;20043;-74
2021/10/27 04:01:37;;;;;;;5.60;3.50;;;14.60;96.70;;;;;;4943185;28;20485;-74
2021/10/27 04:04:06;;;;;;;4.63;3.15;;;14.60;96.70;;;;;;4941635;28;20043;-74
2021/10/27 04:06:34;;;;;;;8.65;3.55;;;14.60;96.70;;;;;;4941988;28;20038;-74
2021/10/27 04:09:03;;;;;;;3.97;3.20;;;14.50;96.70;;;;;;4943736;28;20035;-74
2021/10/27 04:11:31;;;;;;;6.63;3.63;;;14.50;96.70;;;;;;4928918;28;20047;-75
2021/10/27 04:14:01;;;;;;;6.72;3.17;;;14.50;96.70;;;;;;4933726;28;20043;-74
2021/10/27 04:16:29;;;;;;;5.05;3.28;;;14.50;96.70;;;;;;4942337;28;20129;-74
2021/10/27 04:18:57;;;;;;;5.72;2.97;;;14.50;96.70;;;;;;4942397;28;20031;-74
2021/10/27 04:21:25;;;;;;;6.65;3.28;;;14.50;96.70;;;;;;4935396;28;20051;-74
2021/10/27 04:23:53;;;;;;;5.32;3.22;;;14.60;96.70;;;;;;4939872;28;20049;-74
2021/10/27 04:26:21;;;;;;;4.55;3.13;;;14.50;96.70;;;;;;4943443;28;20093;-74
2021/10/27 04:28:49;;;;;;;4.35;2.67;;;14.50;96.70;;;;;;4938199;28;20075;-74
2021/10/27 04:31:19;;;;;;;4.85;2.60;;;14.50;96.70;;;;;;4942578;28;20067;-75
2021/10/27 04:33:47;;;;;;;6.20;2.30;;;14.60;96.70;;;;;;4942448;28;20598;-74
2021/10/27 04:36:16;;;;;;;3.67;1.95;;;14.60;96.70;;;;;;4941934;28;20517;-74
2021/10/27 04:38:44;;;;;;;4.80;2.30;;;14.70;96.70;;;;;;4940421;28;20050;-74
2021/10/27 04:41:13;;;;;;;2.58;2.15;;;14.80;96.70;;;;;;4936944;29;20047;-74
2021/10/27 04:43:40;;;;;;;5.28;2.40;;;14.80;96.70;;;;;;4944181;28;20075;-74
2021/10/27 04:46:08;;;;;;;5.50;2.40;;;14.80;96.70;;;;;;4941739;29;20090;-74
2021/10/27 04:48:38;;;;;;;3.60;2.30;;;14.80;96.70;;;;;;4947000;28;20067;-75
2021/10/27 04:51:06;;;;;;;6.18;2.33;;;14.80;96.70;;;;;;4937188;28;20043;-74
2021/10/27 04:53:35;;;;;;;3.50;2.03;;;14.90;96.70;;;;;;4943981;28;20504;-74
2021/10/27 04:56:03;;;;;;;4.45;2.40;;;14.90;96.70;;;;;;4938752;28;20044;-74
2021/10/27 04:58:31;;;;;;;3.92;2.30;;;14.90;96.70;;;;;;4949932;28;20519;-74
2021/10/27 05:00:58;;;;;;;3.63;2.50;;;14.90;96.70;;;;;;4942714;28;20154;-74
2021/10/27 05:03:27;;;;;;;3.90;2.40;;;14.90;96.70;;;;;;4939983;28;20452;-74
2021/10/27 05:05:57;;;;;;;2.88;2.05;;;14.80;96.70;;;;;;4941586;28;20059;-74
2021/10/27 05:08:25;;;;;;;6.28;2.80;;;14.90;96.70;;;;;;4942654;28;20132;-74
2021/10/27 05:10:53;;;;;;;4.85;2.40;;;14.90;96.70;;;;;;4941571;28;20035;-74
2021/10/27 05:13:21;;;;;;;2.83;1.88;;;14.90;96.70;;;;;;4921602;28;20098;-75
2021/10/27 05:15:50;;;;;;;3.38;2.00;;;14.80;96.70;;;;;;4939854;28;20036;-74
2021/10/27 05:18:18;;;;;;;3.88;2.42;;;14.80;96.70;;;;;;4937540;29;20149;-74
2021/10/27 05:20:47;;;;;;;6.03;2.47;;;14.80;96.70;;;;;;4944139;28;20413;-75
2021/10/27 05:23:16;;;;;;;3.75;2.13;;;14.80;96.70;;;;;;4946650;28;20036;-74
2021/10/27 05:25:44;;;;;;;3.92;2.30;;;14.80;96.70;;;;;;4944187;28;20039;-75
2021/10/27 05:28:13;;;;;;;5.97;2.50;;;14.70;96.70;;;;;;4920519;29;20526;-74
2021/10/27 05:30:41;;;;;;;5.30;2.38;;;14.70;96.70;;;;;;4940573;28;20055;-74
2021/10/27 05:33:09;;;;;;;4.90;2.75;;;14.70;96.70;;;;;;4941994;29;20088;-74
2021/10/27 05:35:36;;;;;;;7.03;2.80;;;14.70;96.70;;;;;;4949717;28;20042;-74
2021/10/27 05:38:04;;;;;;;5.45;2.75;;;14.60;96.70;;;;;;4951222;28;20065;-75
2021/10/27 05:40:34;;;;;;;9.50;3.35;;;14.60;96.70;;;;;;4943448;28;20039;-74
2021/10/27 05:43:07;;;;;;;8.00;2.30;;;14.60;96.70;;;;;;4938896;29;20487;-74
2021/10/27 05:45:35;;;;;;;6.55;2.55;;;14.60;96.70;;;;;;4933642;29;20055;-74
2021/10/27 05:48:05;;;;;;;8.65;2.70;;;14.70;96.70;;;;;;4945652;28;20142;-74
2021/10/27 05:55:53;;;;;;;6.35;2.47;;;14.50;96.70;;;;;;4948365;28;20488;-73
2021/10/27 05:58:21;;;;;;;5.97;2.45;;;14.60;96.70;;;;;;4946738;28;20051;-75
2021/10/27 06:00:48;;;;;;;6.40;2.50;;;14.60;96.70;;;;;;4947339;28;20046;-74
2021/10/27 06:03:17;;;;;;;4.88;2.45;;;14.60;96.70;;;;;;4942447;28;20054;-73
2021/10/27 06:05:45;;;;;;;3.88;2.20;;;14.60;96.70;;;;;;4949933;28;20043;-80
2021/10/27 06:08:15;;;;;;;7.32;2.60;;;14.60;96.70;;;;;;4950056;28;20073;-74
2021/10/27 06:10:43;;;;;;;5.10;2.75;;;14.70;96.70;;;;;;4964815;28;20481;-74
2021/10/27 06:13:15;;;;;;;5.85;2.72;;;14.70;96.70;;;;;;4944537;28;20123;-75
2021/10/27 06:15:43;;;;;;;5.10;2.55;;;14.70;96.70;;;;;;4933591;28;20081;-75
2021/10/27 06:18:11;;;;;;;3.45;2.33;;;14.80;96.70;;;;;;4945142;28;20157;-75
2021/10/27 06:20:40;;;;;;;7.40;3.22;;;14.70;96.70;;;;;;4948837;28;20043;-75
2021/10/27 06:23:08;;;;;;;5.70;2.90;;;14.70;96.70;;;;;;4943585;28;20125;-75
2021/10/27 06:25:36;;;;;;;4.30;2.67;;;14.70;96.70;;;;;;4947560;28;20580;-74
2021/10/27 06:28:09;;;;;;;6.18;2.75;;;14.80;96.70;;;;;;4932704;28;20055;-74
2021/10/27 06:33:46;;;;;;;5.60;2.60;;;14.90;96.70;;;;;;4941940;28;20043;-74
2021/10/27 06:36:26;;;;;;;6.28;3.20;;;14.90;96.70;;;;;;4946721;28;20039;-74
2021/10/27 06:39:22;;;;;;;5.88;3.22;;;14.90;96.70;;;;;;4948555;28;20468;-74
2021/10/27 06:47:26;;;;;;;4.13;2.75;;;15.00;96.70;;;;;;4944295;28;20122;-74
2021/10/27 06:49:54;;;;;;;4.68;2.60;;;15.00;96.70;;;;;;4945571;28;20043;-74
2021/10/27 06:52:22;;;;;;;5.72;2.50;;;15.10;96.70;;;;;;4944063;28;20157;-74
2021/10/27 06:54:52;;;;;;;6.30;2.72;;;15.20;96.70;;;;;;4943986;28;20035;-74
2021/10/27 06:57:27;;;;;;;6.75;2.60;;;15.20;96.70;;;;;;4925675;29;20132;-74
2021/10/27 07:00:00;;;;;;;2.88;2.20;;;15.30;96.70;;;;;;4943357;29;20106;-74
2021/10/27 07:05:11;;;;;;;7.75;3.00;;;15.30;96.70;;;;;;4945338;28;20145;-74
2021/10/27 07:16:07;;;;;;;2.87;1.93;;;15.70;96.70;;;;;;4903320;29;20059;-74
2021/10/27 07:18:36;;;;;;;6.15;2.15;;;15.70;96.70;;;;;;4938761;28;20051;-73
2021/10/27 07:21:04;;;;;;;4.97;2.08;;;15.80;96.70;;;;;;4940627;28;20061;-75
2021/10/27 07:23:34;;;;;;;3.83;1.98;;;15.80;96.70;;;;;;4945074;28;20050;-75
2021/10/27 07:26:02;;;;;;;3.35;1.60;;;15.90;96.70;;;;;;4937650;29;20051;-74
2021/10/27 07:28:31;;;;;;;4.03;1.58;;;15.90;96.70;;;;;;4942371;28;20897;-74
2021/10/27 07:31:00;;;;;;;6.10;1.83;;;16.00;96.70;;;;;;4936765;28;20070;-75
2021/10/27 07:33:29;;;;;;;4.20;1.98;;;16.00;96.70;;;;;;4944092;28;20043;-74
2021/10/27 07:36:05;;;;;;;3.83;1.50;;;16.10;96.70;;;;;;4939892;28;20039;-75
2021/10/27 07:41:20;;;;;;;2.40;1.53;;;16.30;96.70;;;;;;4944596;28;20051;-75
2021/10/27 07:43:48;;;;;;;5.20;1.90;;;16.40;96.70;;;;;;4941121;28;20307;-75
2021/10/27 07:46:17;;;;;;;2.60;1.70;;;16.50;96.70;;;;;;4938405;28;20047;-74
2021/10/27 07:48:45;;;;;;;2.65;1.77;;;16.60;96.70;;;;;;4943548;28;20102;-74
2021/10/27 07:51:15;;;;;;;3.33;1.75;;;16.60;96.70;;;;;;4941835;28;20051;-73
2021/10/27 07:53:43;;;;;;;2.30;1.60;;;16.70;96.70;;;;;;4939623;28;20131;-76
2021/10/27 07:56:12;;;;;;;3.60;1.75;;;16.80;96.70;;;;;;4939696;28;20051;-75
2021/10/27 07:58:40;;;;;;;3.60;1.55;;;16.80;96.70;;;;;;4944521;28;20058;-74
2021/10/27 08:01:09;;;;;;;2.60;1.77;;;16.90;96.70;;;;;;4952248;28;20075;-74
2021/10/27 08:03:39;;;;;;;2.97;1.38;;;17.00;96.70;;;;;;4941185;29;20488;-74
2021/10/27 08:06:09;;;;;;;1.77;1.42;;;16.90;96.70;;;;;;4942611;28;20097;-73
2021/10/27 08:08:39;;;;;;;3.72;1.63;;;16.90;96.60;;;;;;4940413;28;20561;-74
2021/10/27 08:11:08;;;;;;;2.60;1.58;;;17.00;96.50;;;;;;4944000;28;20039;-74
2021/10/27 08:13:37;;;;;;;3.88;1.73;;;17.10;96.30;;;;;;4943238;28;20150;-76
2021/10/27 08:16:06;;;;;;;2.80;1.63;;;17.20;96.60;;;;;;4942430;28;20131;-75
2021/10/27 08:18:34;;;;;;;2.03;1.48;;;17.20;96.60;;;;;;4943831;28;20041;-75
2021/10/27 08:21:03;;;;;;;4.10;1.80;;;17.20;96.70;;;;;;4937420;29;20544;-75
2021/10/27 08:23:35;;;;;;;3.25;1.60;;;17.30;96.00;;;;;;4940483;28;20039;-76
2021/10/27 08:26:09;;;;;;;2.47;1.60;;;17.30;96.10;;;;;;4930391;29;20544;-75
2021/10/27 08:28:39;;;;;;;2.35;1.65;;;17.30;95.40;;;;;;4943735;28;20597;-73
2021/10/27 08:36:10;;;;;;;2.13;1.73;;;17.50;94.80;;;;;;4941541;28;20232;-73
2021/10/27 08:38:39;;;;;;;2.83;1.70;;;17.50;94.90;;;;;;4918868;29;20539;-74
2021/10/27 08:41:14;;;;;;;3.03;1.27;;;17.60;95.00;;;;;;4941861;29;20422;-74
2021/10/27 08:43:43;;;;;;;4.00;1.55;;;17.60;95.20;;;;;;4947477;28;20153;-74
2021/10/27 08:46:11;;;;;;;2.38;1.42;;;17.70;94.60;;;;;;4941489;28;20157;-74
2021/10/27 08:48:44;;;;;;;2.70;1.67;;;17.80;94.70;;;;;;4941795;28;20090;-74
2021/10/27 08:51:13;;;;;;;3.17;1.63;;;17.80;94.80;;;;;;4944737;28;20043;-75
2021/10/27 08:53:41;;;;;;;3.60;1.60;;;17.80;94.50;;;;;;4943498;28;20058;-74
2021/10/27 08:56:10;;;;;;;2.88;1.42;;;17.90;94.10;;;;;;4938690;28;20039;-74
2021/10/27 08:58:50;;;;;;;4.15;1.52;;;18.00;94.70;;;;;;4943558;28;20039;-74
2021/10/27 09:01:32;;;;;;;3.88;1.70;;;18.10;94.90;;;;;;4939696;28;20074;-74
2021/10/27 09:06:51;;;;;;;2.13;1.30;;;18.30;94.90;;;;;;4940757;28;20545;-74
2021/10/27 09:41:16;;;;;;;4.38;1.90;;;18.30;93.00;;;;;;4937892;28;20532;-74
2021/10/27 09:43:58;;;;;;;3.50;1.85;;;18.30;93.50;;;;;;4938532;28;20047;-74
2021/10/27 10:06:38;;;;;;;2.10;1.50;;;19.00;93.60;;;;;;4943201;28;20117;-74
2021/10/27 10:09:07;;;;;;;3.85;1.60;;;19.20;92.80;;;;;;4941025;29;20553;-73
2021/10/27 10:11:36;;;;;;;3.60;1.45;;;19.20;92.40;;;;;;4944149;28;20035;-75
2021/10/27 10:14:07;;;;;;;3.60;1.70;;;19.20;91.90;;;;;;4919502;29;20588;-74
2021/10/27 10:16:40;;;;;;;5.68;1.88;;;19.30;92.10;;;;;;4918112;29;20577;-75
2021/10/27 10:19:13;;;;;;;2.30;1.63;;;19.30;91.80;;;;;;4938596;29;20047;-75
2021/10/27 10:21:45;;;;;;;3.20;1.50;;;19.40;91.60;;;;;;4944155;28;20295;-76
2021/10/27 10:24:31;;;;;;;2.55;1.58;;;19.40;91.80;;;;;;4942718;28;20142;-75
2021/10/27 10:27:04;;;;;;;6.63;2.85;;;19.50;91.50;;;;;;4944370;28;20521;-75
2021/10/27 10:29:59;;;;;;;3.70;1.65;;;19.60;91.30;;;;;;4943155;28;20047;-75
2021/10/27 10:32:38;;;;;;;2.22;1.67;;;19.70;91.30;;;;;;4943493;29;20047;-75
2021/10/27 10:35:15;;;;;;;2.25;1.48;;;19.80;90.80;;;;;;4944165;28;20058;-75
2021/10/27 10:37:52;;;;;;;3.00;1.73;;;19.80;90.20;;;;;;4941800;28;20676;-75
2021/10/27 10:41:00;;;;;;;3.90;1.33;;;19.70;90.00;;;;;;4943145;28;20075;-75
2021/10/27 10:58:26;;;;;;;2.03;1.45;;;19.90;90.20;;;;;;4878003;29;20030;-75
2021/10/27 11:24:17;;;;;;;2.22;1.70;;;20.40;89.70;;;;;;4942158;28;20054;-74
2021/10/27 11:38:37;;;;;;;2.38;1.85;;;20.70;88.40;;;;;;4946724;28;19926;-74
2021/10/27 11:41:18;;;;;;;2.60;1.80;;;20.80;88.30;;;;;;4959861;28;20461;-74
2021/10/27 11:44:12;;;;;;;3.15;2.05;;;20.70;88.00;;;;;;4942159;28;20094;-75
2021/10/27 11:46:45;;;;;;;5.10;2.00;;;20.90;88.20;;;;;;4941805;28;20044;-75
2021/10/27 11:49:14;;;;;;;4.38;1.80;;;20.90;87.80;;;;;;4934799;29;20046;-74
2021/10/27 11:51:54;;;;;;;2.90;1.83;;;21.00;87.30;;;;;;4919095;28;20118;-74
2021/10/27 11:54:26;;;;;;;3.90;2.05;;;21.20;87.70;;;;;;4943661;28;20489;-74
2021/10/27 11:56:54;;;;;;;3.25;1.73;;;21.20;87.40;;;;;;4943764;28;20420;-74
2021/10/27 11:59:36;;;;;;;2.65;1.65;;;21.20;87.20;;;;;;4940473;28;20043;-74
2021/10/27 12:02:05;;;;;;;2.38;1.63;;;21.20;87.50;;;;;;4943407;28;20094;-74
2021/10/27 12:04:37;;;;;;;2.33;1.60;;;21.40;86.90;;;;;;4944560;28;20426;-74
2021/10/27 12:07:36;;;;;;;3.65;1.98;;;21.50;87.20;;;;;;4935878;29;20151;-75
2021/10/27 12:12:44;;;;;;;2.88;1.70;;;21.60;86.60;;;;;;4943380;28;20237;-74
2021/10/27 12:20:34;;;;;;;2.03;1.70;;;21.60;85.70;;;;;;4935812;28;20031;-75
2021/10/27 12:23:02;;;;;;;;;;;21.50;86.00;;;;;;4941000;28;20548;-75
2021/10/27 12:25:30;;;;;;;3.40;2.00;;;21.60;86.20;;;;;;4940587;28;19926;-75
2021/10/27 12:28:05;;;;;;;2.85;1.98;;;21.70;86.20;;;;;;4943283;28;20051;-75
2021/10/27 12:30:44;;;;;;;2.95;2.13;;;21.70;85.90;;;;;;4936681;29;20047;-75
2021/10/27 12:33:12;;;;;;;2.40;1.58;;;21.80;85.70;;;;;;4936564;28;20472;-75
2021/10/27 12:35:41;;;;;;;4.60;1.92;;;21.70;85.50;;;;;;4941482;28;20035;-76
2021/10/27 12:38:31;;;;;;;3.38;2.00;;;21.70;86.00;;;;;;4942109;28;20543;-75
2021/10/27 12:41:15;;;;;;;2.95;1.90;;;21.80;85.30;;;;;;4945436;28;20094;-75
2021/10/27 12:43:43;;;;;;;2.40;1.85;;;21.70;85.30;;;;;;4941258;28;20035;-76
2021/10/27 12:46:20;;;;;;;4.30;2.00;;;21.70;84.80;;;;;;4944271;28;20584;-74
2021/10/27 12:48:48;;;;;;;3.20;1.88;;;21.70;85.00;;;;;;4949946;28;20049;-75
2021/10/27 12:51:16;;;;;;;3.38;1.90;;;21.70;84.60;;;;;;4939368;28;20513;-75
2021/10/27 12:53:51;;;;;;;3.60;1.77;;;21.60;84.80;;;;;;4937106;28;20042;-75
2021/10/27 12:56:23;;;;;;;4.45;2.00;;;21.70;84.80;;;;;;4939788;28;20138;-75
2021/10/27 12:59:02;;;;;;;3.33;1.80;;;21.70;84.90;;;;;;4943827;28;20046;-75
2021/10/27 13:01:38;;;;;;;2.95;1.70;;;21.70;84.60;;;;;;4940931;28;20568;-74
2021/10/27 13:04:22;;;;;;;2.05;1.77;;;21.70;84.90;;;;;;4950391;28;20558;-75
2021/10/27 13:20:14;;;;;;;6.32;1.73;;;21.70;84.50;;;;;;4940329;28;20047;-75
2021/10/27 13:33:24;;;;;;;6.13;1.80;;;21.70;84.40;;;;;;4942053;29;20505;-74
2021/10/27 13:35:53;;;;;;;3.55;1.67;;;21.70;83.90;;;;;;4944856;28;20134;-75
2021/10/27 13:38:25;;;;;;;2.15;1.42;;;21.70;83.70;;;;;;4951981;28;20054;-74
2021/10/27 13:40:54;;;;;;;3.53;1.70;;;21.70;83.90;;;;;;4925470;29;20165;-74
2021/10/27 14:08:27;;;;;;;4.47;1.58;;;21.70;84.00;;;;;;4953452;28;20066;-75
2021/10/27 14:13:43;;;;;;;3.45;2.05;;;21.70;84.10;;;;;;4939352;28;20140;-73
2021/10/27 14:16:24;;;;;;;2.33;1.60;;;21.70;84.10;;;;;;4930786;28;20052;-74
2021/10/27 15:20:06;;;;;;;3.38;1.60;;;24.60;77.70;;;;;;4943340;28;20047;-75
2021/10/27 15:22:49;;;;;;;2.45;1.65;;;24.80;77.00;;;;;;4947626;28;20074;-74
2021/10/27 15:30:43;;;;;;;4.28;1.80;;;24.90;75.80;;;;;;4939969;29;20054;-74
2021/10/27 15:41:41;;;;;;;5.47;1.52;;;21.20;82.30;;;;;;4944529;28;20390;-79
2021/10/27 15:52:22;;;;;;;2.40;1.30;;;20.30;84.10;;;;;;4951422;28;20047;-77
2021/10/27 15:54:50;;;;;;;2.40;1.48;;;20.10;84.70;;;;;;4941052;28;20094;-77
2021/10/27 15:57:19;;;;;;;2.55;1.55;;;20.00;84.80;;;;;;4937657;28;20058;-81
2021/10/27 15:59:50;;;;;;;2.03;1.33;;;19.90;85.10;;;;;;4940490;28;20047;-81
2021/10/27 16:02:19;;;;;;;1.70;1.30;;;19.70;85.40;;;;;;4921496;29;20063;-79
2021/10/27 16:04:48;;;;;;;2.15;1.42;;;19.60;85.30;;;;;;4917895;29;20043;-80
2021/10/27 16:07:17;;;;;;;4.28;1.60;;;19.50;85.60;;;;;;4939361;28;20866;-76
2021/10/27 16:09:49;;;;;;;2.08;1.30;;;19.40;85.90;;;;;;4921300;28;20590;-76
2021/10/27 16:12:27;;;;;;;3.28;1.40;;;19.40;86.10;;;;;;4946028;28;20054;-76
2021/10/27 16:14:58;;;;;;;2.35;1.17;;;19.30;86.60;;;;;;4941582;28;20138;-76
2021/10/27 16:17:26;;;;;;;1.40;1.30;;;19.20;87.10;;;;;;4947463;28;20043;-76
2021/10/27 16:19:54;;;;;;;1.75;1.50;;;19.10;87.30;;;;;;4947216;28;20039;-76
2021/10/27 16:22:23;;;;;;;3.25;1.20;;;19.00;87.20;;;;;;4945530;28;20036;-77
2021/10/27 16:24:51;;;;;;;1.92;1.30;;;19.00;87.50;;;;;;4949537;28;20043;-76
2021/10/27 16:27:19;;;;;;;1.67;1.38;;;18.90;87.40;;;;;;4950827;28;20043;-78
2021/10/27 16:29:49;;;;;;;2.85;1.25;;;18.90;87.50;;;;;;4949281;28;20138;-77
2021/10/27 16:32:19;;;;;;;4.35;1.40;;;18.80;87.50;;;;;;4945851;28;20145;-77
2021/10/27 16:34:47;;;;;;;2.50;1.30;;;18.80;87.40;;;;;;4944953;28;20063;-77
2021/10/27 16:37:23;;;;;;;2.00;1.10;;;18.80;87.20;;;;;;4945324;28;20046;-77
2021/10/27 16:39:52;;;;;;;3.03;1.60;;;18.70;87.40;;;;;;4945630;28;20054;-77
2021/10/27 16:42:21;;;;;;;2.67;1.20;;;18.70;87.60;;;;;;4920849;28;20155;-77
2021/10/27 16:44:49;;;;;;;3.67;1.10;;;18.70;87.80;;;;;;4942528;28;20050;-77
2021/10/27 16:47:19;;;;;;;3.15;1.20;;;18.60;87.90;;;;;;4947869;28;20068;-77
2021/10/27 16:49:47;;;;;;;2.85;1.55;;;18.60;88.00;;;;;;4943356;28;20042;-77
2021/10/27 16:52:16;;;;;;;2.05;1.67;;;18.50;88.30;;;;;;4944165;28;20048;-77
2021/10/27 16:54:44;;;;;;;2.00;1.33;;;18.50;88.50;;;;;;4932674;28;20046;-77
2021/10/27 16:57:12;;;;;;;3.95;1.90;;;18.50;88.40;;;;;;4919640;28;20154;-78
2021/10/27 16:59:40;;;;;;;4.13;2.17;;;18.40;88.70;;;;;;4943499;28;20066;-77
2021/10/27 17:02:09;;;;;;;2.67;1.65;;;18.40;88.90;;;;;;4941937;28;20157;-77
2021/10/27 17:04:39;;;;;;;3.38;1.92;;;18.40;89.10;;;;;;4939616;28;20822;-77
2021/10/27 17:07:07;;;;;;;2.63;1.48;;;18.40;89.20;;;;;;4920097;29;20055;-77
2021/10/27 17:09:37;;;;;;;2.50;1.60;;;18.30;89.20;;;;;;4939865;28;20050;-77
2021/10/27 17:12:06;;;;;;;3.40;1.80;;;18.30;89.10;;;;;;4933189;29;20044;-78
2021/10/27 17:14:35;;;;;;;3.78;1.70;;;18.30;89.10;;;;;;4940115;28;20039;-77
2021/10/27 17:17:04;;;;;;;2.50;1.70;;;18.20;89.30;;;;;;4937839;28;20047;-77
2021/10/27 17:19:34;;;;;;;2.75;2.22;;;18.30;89.50;;;;;;4946929;28;20043;-77
2021/10/27 17:22:06;;;;;;;3.35;2.15;;;18.20;89.40;;;;;;4940880;29;20052;-76
2021/10/27 17:24:35;;;;;;;3.97;2.08;;;18.20;89.50;;;;;;4937731;29;20338;-79
2021/10/27 17:27:24;;;;;;;3.65;1.60;;;18.10;89.70;;;;;;4941099;28;20050;-85
2021/10/27 17:29:53;;;;;;;3.25;1.52;;;18.10;89.90;;;;;;4935506;29;20042;-78
2021/10/27 17:32:23;;;;;;;3.90;1.75;;;18.00;90.00;;;;;;4946054;28;20164;-77
2021/10/27 17:34:51;;;;;;;3.47;1.73;;;18.10;90.10;;;;;;4940529;28;20437;-76
2021/10/27 17:37:21;;;;;;;3.00;1.77;;;18.00;90.10;;;;;;4946898;28;20066;-76
2021/10/27 17:39:49;;;;;;;3.10;1.55;;;18.00;90.30;;;;;;4939429;28;20615;-77
2021/10/27 17:42:19;;;;;;;2.38;1.60;;;17.90;90.30;;;;;;4951027;28;20050;-77